sensor_id;sensor_type;location;lat;lon;timestamp;pressure;altitude;pressure_sealevel;temperature;humidity
73974;BME280;62336;-26.094;27.994;2022-08-25T00:02:05;85366.57;;;23.01;16.29
73974;BME280;62336;-26.094;27.994;2022-08-25T00:04:27;85365.46;;;23.28;16.31
73974;BME280;62336;-26.094;27.994;2022-08-25T00:06:53;85364.22;;;22.86;16.40
73974;BME280;62336;-26.094;27.994;2022-08-25T00:09:21;85360.50;;;22.81;16.46
73974;BME280;62336;-26.094;27.994;2022-08-25T00:11:44;85359.87;;;22.48;16.83
73974;BME280;62336;-26.094;27.994;2022-08-25T00:14:12;85359.01;;;22.73;16.62
73974;BME280;62336;-26.094;27.994;2022-08-25T00:16:34;85357.66;;;22.71;16.43
73974;BME280;62336;-26.094;27.994;2022-08-25T00:19:03;85354.49;;;22.88;16.82
73974;BME280;62336;-26.094;27.994;2022-08-25T00:21:26;85355.84;;;22.59;16.77
73974;BME280;62336;-26.094;27.994;2022-08-25T00:23:50;85355.48;;;22.63;16.65
73974;BME280;62336;-26.094;27.994;2022-08-25T00:26:17;85353.96;;;22.46;16.62
73974;BME280;62336;-26.094;27.994;2022-08-25T00:28:42;85355.05;;;22.40;16.72
73974;BME280;62336;-26.094;27.994;2022-08-25T00:31:11;85354.17;;;22.62;16.76
73974;BME280;62336;-26.094;27.994;2022-08-25T00:33:33;85346.85;;;23.05;16.38
73974;BME280;62336;-26.094;27.994;2022-08-25T00:35:58;85343.12;;;22.67;16.59
73974;BME280;62336;-26.094;27.994;2022-08-25T00:38:24;85337.44;;;22.62;16.98
73974;BME280;62336;-26.094;27.994;2022-08-25T00:40:50;85333.83;;;22.48;17.01
73974;BME280;62336;-26.094;27.994;2022-08-25T00:43:14;85332.14;;;22.43;17.53
73974;BME280;62336;-26.094;27.994;2022-08-25T00:45:39;85327.12;;;22.78;16.99
73974;BME280;62336;-26.094;27.994;2022-08-25T00:48:05;85323.30;;;22.83;16.86
73974;BME280;62336;-26.094;27.994;2022-08-25T00:50:31;85319.97;;;22.55;17.20
73974;BME280;62336;-26.094;27.994;2022-08-25T00:52:58;85320.44;;;22.25;17.23
73974;BME280;62336;-26.094;27.994;2022-08-25T00:55:24;85317.06;;;22.15;17.54
73974;BME280;62336;-26.094;27.994;2022-08-25T00:57:51;85311.22;;;22.37;17.00
73974;BME280;62336;-26.094;27.994;2022-08-25T01:00:16;85306.60;;;22.06;17.48
73974;BME280;62336;-26.094;27.994;2022-08-25T01:02:38;85304.06;;;21.97;17.43
73974;BME280;62336;-26.094;27.994;2022-08-25T01:05:04;85299.68;;;22.21;17.27
73974;BME280;62336;-26.094;27.994;2022-08-25T01:07:29;85297.81;;;22.04;17.34
73974;BME280;62336;-26.094;27.994;2022-08-25T01:09:55;85294.22;;;22.01;17.41
73974;BME280;62336;-26.094;27.994;2022-08-25T01:12:20;85293.82;;;22.38;16.92
73974;BME280;62336;-26.094;27.994;2022-08-25T01:14:46;85291.83;;;22.16;17.33
73974;BME280;62336;-26.094;27.994;2022-08-25T01:17:10;85287.93;;;22.21;17.27
73974;BME280;62336;-26.094;27.994;2022-08-25T01:19:36;85285.31;;;22.08;17.22
73974;BME280;62336;-26.094;27.994;2022-08-25T01:22:01;85280.22;;;22.04;17.21
73974;BME280;62336;-26.094;27.994;2022-08-25T01:24:33;85279.40;;;21.99;17.26
73974;BME280;62336;-26.094;27.994;2022-08-25T01:26:51;85279.77;;;21.91;17.66
73974;BME280;62336;-26.094;27.994;2022-08-25T01:29:17;85277.78;;;21.82;17.45
73974;BME280;62336;-26.094;27.994;2022-08-25T01:31:42;85276.63;;;22.13;17.57
73974;BME280;62336;-26.094;27.994;2022-08-25T01:34:09;85276.54;;;21.78;17.69
73974;BME280;62336;-26.094;27.994;2022-08-25T01:36:34;85276.76;;;21.92;17.57
73974;BME280;62336;-26.094;27.994;2022-08-25T01:38:59;85275.73;;;21.49;17.73
73974;BME280;62336;-26.094;27.994;2022-08-25T01:41:34;85274.34;;;22.11;17.53
73974;BME280;62336;-26.094;27.994;2022-08-25T01:43:49;85275.43;;;21.85;17.66
73974;BME280;62336;-26.094;27.994;2022-08-25T01:46:15;85271.51;;;21.85;17.76
73974;BME280;62336;-26.094;27.994;2022-08-25T01:48:41;85270.31;;;22.05;17.78
73974;BME280;62336;-26.094;27.994;2022-08-25T01:51:06;85268.15;;;21.28;18.09
73974;BME280;62336;-26.094;27.994;2022-08-25T01:53:32;85265.11;;;21.66;17.39
73974;BME280;62336;-26.094;27.994;2022-08-25T01:55:57;85261.69;;;21.95;17.50
73974;BME280;62336;-26.094;27.994;2022-08-25T01:58:24;85262.29;;;21.90;17.55
73974;BME280;62336;-26.094;27.994;2022-08-25T02:00:48;85263.81;;;21.93;17.60
73974;BME280;62336;-26.094;27.994;2022-08-25T02:03:13;85260.78;;;21.88;17.43
73974;BME280;62336;-26.094;27.994;2022-08-25T02:05:39;85259.40;;;21.94;17.30
73974;BME280;62336;-26.094;27.994;2022-08-25T02:08:04;85263.82;;;21.99;17.71
73974;BME280;62336;-26.094;27.994;2022-08-25T02:10:30;85263.53;;;21.91;17.50
73974;BME280;62336;-26.094;27.994;2022-08-25T02:12:55;85263.45;;;21.92;17.52
73974;BME280;62336;-26.094;27.994;2022-08-25T02:15:20;85262.15;;;21.70;17.51
73974;BME280;62336;-26.094;27.994;2022-08-25T02:17:46;85264.12;;;21.68;17.51
73974;BME280;62336;-26.094;27.994;2022-08-25T02:20:12;85265.21;;;21.68;17.87
73974;BME280;62336;-26.094;27.994;2022-08-25T02:22:37;85264.75;;;21.92;17.54
73974;BME280;62336;-26.094;27.994;2022-08-25T02:25:03;85264.63;;;22.30;17.79
73974;BME280;62336;-26.094;27.994;2022-08-25T02:27:28;85263.59;;;21.71;17.70
73974;BME280;62336;-26.094;27.994;2022-08-25T02:29:53;85263.33;;;21.66;17.56
73974;BME280;62336;-26.094;27.994;2022-08-25T02:32:18;85263.22;;;21.58;17.76
73974;BME280;62336;-26.094;27.994;2022-08-25T02:34:44;85262.40;;;21.72;17.82
73974;BME280;62336;-26.094;27.994;2022-08-25T02:37:10;85261.51;;;21.36;17.65
73974;BME280;62336;-26.094;27.994;2022-08-25T02:39:35;85260.13;;;21.26;17.88
73974;BME280;62336;-26.094;27.994;2022-08-25T02:42:00;85260.85;;;21.02;17.91
73974;BME280;62336;-26.094;27.994;2022-08-25T02:44:26;85260.12;;;21.16;17.68
73974;BME280;62336;-26.094;27.994;2022-08-25T02:46:52;85263.54;;;22.29;17.32
73974;BME280;62336;-26.094;27.994;2022-08-25T02:49:18;85265.52;;;21.88;17.29
73974;BME280;62336;-26.094;27.994;2022-08-25T02:51:42;85266.76;;;22.00;17.48
73974;BME280;62336;-26.094;27.994;2022-08-25T02:54:08;85267.82;;;22.07;17.47
73974;BME280;62336;-26.094;27.994;2022-08-25T02:56:34;85273.84;;;21.27;17.80
73974;BME280;62336;-26.094;27.994;2022-08-25T02:59:00;85277.81;;;21.78;17.55
73974;BME280;62336;-26.094;27.994;2022-08-25T03:01:25;85281.96;;;21.44;17.50
73974;BME280;62336;-26.094;27.994;2022-08-25T03:03:51;85281.17;;;21.53;17.63
73974;BME280;62336;-26.094;27.994;2022-08-25T03:06:18;85282.70;;;21.45;18.06
73974;BME280;62336;-26.094;27.994;2022-08-25T03:08:42;85281.72;;;21.32;17.85
73974;BME280;62336;-26.094;27.994;2022-08-25T03:11:07;85282.78;;;21.77;17.83
73974;BME280;62336;-26.094;27.994;2022-08-25T03:13:32;85284.24;;;21.01;18.06
73974;BME280;62336;-26.094;27.994;2022-08-25T03:15:58;85290.03;;;21.39;17.94
73974;BME280;62336;-26.094;27.994;2022-08-25T03:18:23;85287.87;;;21.57;17.63
73974;BME280;62336;-26.094;27.994;2022-08-25T03:20:48;85290.41;;;21.43;17.91
73974;BME280;62336;-26.094;27.994;2022-08-25T03:23:14;85292.22;;;21.38;17.80
73974;BME280;62336;-26.094;27.994;2022-08-25T03:25:40;85288.35;;;21.34;17.49
73974;BME280;62336;-26.094;27.994;2022-08-25T03:28:06;85294.66;;;20.88;17.73
73974;BME280;62336;-26.094;27.994;2022-08-25T03:30:30;85293.57;;;21.31;17.87
73974;BME280;62336;-26.094;27.994;2022-08-25T03:32:56;85296.92;;;20.94;17.77
73974;BME280;62336;-26.094;27.994;2022-08-25T03:35:21;85300.97;;;21.05;17.68
73974;BME280;62336;-26.094;27.994;2022-08-25T03:37:46;85302.96;;;21.40;17.79
73974;BME280;62336;-26.094;27.994;2022-08-25T03:40:14;85303.31;;;21.15;17.56
73974;BME280;62336;-26.094;27.994;2022-08-25T03:42:41;85304.15;;;21.54;17.43
73974;BME280;62336;-26.094;27.994;2022-08-25T03:45:03;85307.70;;;21.65;17.40
73974;BME280;62336;-26.094;27.994;2022-08-25T03:47:28;85312.03;;;21.24;17.42
73974;BME280;62336;-26.094;27.994;2022-08-25T03:49:55;85311.98;;;21.51;17.29
73974;BME280;62336;-26.094;27.994;2022-08-25T03:52:19;85313.95;;;20.72;17.59
73974;BME280;62336;-26.094;27.994;2022-08-25T03:54:45;85324.36;;;21.31;17.97
73974;BME280;62336;-26.094;27.994;2022-08-25T03:57:11;85334.52;;;21.35;17.64
73974;BME280;62336;-26.094;27.994;2022-08-25T03:59:36;85341.59;;;21.29;17.63
73974;BME280;62336;-26.094;27.994;2022-08-25T04:02:02;85345.30;;;21.49;17.99
73974;BME280;62336;-26.094;27.994;2022-08-25T04:04:27;85352.13;;;21.29;17.80
73974;BME280;62336;-26.094;27.994;2022-08-25T04:06:54;85356.33;;;21.66;17.65
73974;BME280;62336;-26.094;27.994;2022-08-25T04:09:18;85360.73;;;21.17;17.41
73974;BME280;62336;-26.094;27.994;2022-08-25T04:11:43;85361.62;;;21.63;17.47
73974;BME280;62336;-26.094;27.994;2022-08-25T04:14:09;85359.41;;;21.15;17.56
73974;BME280;62336;-26.094;27.994;2022-08-25T04:16:34;85361.61;;;21.62;17.55
73974;BME280;62336;-26.094;27.994;2022-08-25T04:19:01;85363.11;;;21.12;17.89
73974;BME280;62336;-26.094;27.994;2022-08-25T04:21:25;85363.26;;;20.70;17.99
73974;BME280;62336;-26.094;27.994;2022-08-25T04:23:52;85365.39;;;21.00;18.01
73974;BME280;62336;-26.094;27.994;2022-08-25T04:26:19;85366.70;;;21.40;17.85
73974;BME280;62336;-26.094;27.994;2022-08-25T04:28:41;85371.07;;;21.28;18.13
73974;BME280;62336;-26.094;27.994;2022-08-25T04:31:08;85371.66;;;21.27;18.11
73974;BME280;62336;-26.094;27.994;2022-08-25T04:33:32;85374.79;;;21.10;18.02
73974;BME280;62336;-26.094;27.994;2022-08-25T04:35:57;85377.61;;;21.10;17.91
73974;BME280;62336;-26.094;27.994;2022-08-25T04:38:24;85374.97;;;21.09;18.02
73974;BME280;62336;-26.094;27.994;2022-08-25T04:40:55;85377.55;;;21.32;18.18
73974;BME280;62336;-26.094;27.994;2022-08-25T04:43:14;85380.90;;;20.90;18.64
73974;BME280;62336;-26.094;27.994;2022-08-25T04:45:40;85379.93;;;21.40;18.41
73974;BME280;62336;-26.094;27.994;2022-08-25T04:48:05;85383.91;;;21.61;18.25
73974;BME280;62336;-26.094;27.994;2022-08-25T04:50:30;85383.98;;;21.47;18.51
73974;BME280;62336;-26.094;27.994;2022-08-25T04:52:56;85385.44;;;21.62;18.35
73974;BME280;62336;-26.094;27.994;2022-08-25T04:55:21;85390.06;;;21.57;18.33
73974;BME280;62336;-26.094;27.994;2022-08-25T04:57:46;85394.76;;;21.16;18.46
73974;BME280;62336;-26.094;27.994;2022-08-25T05:00:13;85393.03;;;21.60;18.61
73974;BME280;62336;-26.094;27.994;2022-08-25T05:02:37;85395.45;;;21.52;18.14
73974;BME280;62336;-26.094;27.994;2022-08-25T05:05:03;85396.07;;;21.73;18.19
73974;BME280;62336;-26.094;27.994;2022-08-25T05:07:29;85400.81;;;21.15;18.32
73974;BME280;62336;-26.094;27.994;2022-08-25T05:09:55;85406.30;;;21.24;18.58
73974;BME280;62336;-26.094;27.994;2022-08-25T05:12:19;85411.99;;;21.18;18.76
73974;BME280;62336;-26.094;27.994;2022-08-25T05:14:45;85406.48;;;21.44;18.34
73974;BME280;62336;-26.094;27.994;2022-08-25T05:17:10;85406.33;;;21.82;18.18
73974;BME280;62336;-26.094;27.994;2022-08-25T05:19:36;85409.82;;;21.93;18.05
73974;BME280;62336;-26.094;27.994;2022-08-25T05:22:00;85410.27;;;21.54;18.32
73974;BME280;62336;-26.094;27.994;2022-08-25T05:24:26;85410.69;;;21.41;18.51
73974;BME280;62336;-26.094;27.994;2022-08-25T05:26:52;85407.52;;;21.60;18.33
73974;BME280;62336;-26.094;27.994;2022-08-25T05:29:17;85407.88;;;21.37;18.39
73974;BME280;62336;-26.094;27.994;2022-08-25T05:31:43;85411.53;;;20.97;18.35
73974;BME280;62336;-26.094;27.994;2022-08-25T05:34:08;85410.51;;;21.53;18.18
73974;BME280;62336;-26.094;27.994;2022-08-25T05:36:34;85412.53;;;21.39;18.15
73974;BME280;62336;-26.094;27.994;2022-08-25T05:39:00;85413.40;;;21.68;18.11
73974;BME280;62336;-26.094;27.994;2022-08-25T05:41:27;85418.85;;;21.84;17.90
73974;BME280;62336;-26.094;27.994;2022-08-25T05:43:51;85417.98;;;21.92;19.03
73974;BME280;62336;-26.094;27.994;2022-08-25T05:46:17;85418.62;;;21.87;18.12
73974;BME280;62336;-26.094;27.994;2022-08-25T05:48:42;85419.55;;;22.07;17.87
73974;BME280;62336;-26.094;27.994;2022-08-25T05:51:10;85420.06;;;21.83;17.70
73974;BME280;62336;-26.094;27.994;2022-08-25T05:53:33;85416.50;;;22.12;17.76
73974;BME280;62336;-26.094;27.994;2022-08-25T05:55:59;85417.43;;;21.95;17.82
73974;BME280;62336;-26.094;27.994;2022-08-25T05:58:25;85417.25;;;21.12;17.59
73974;BME280;62336;-26.094;27.994;2022-08-25T06:00:49;85414.70;;;21.53;17.18
73974;BME280;62336;-26.094;27.994;2022-08-25T06:03:14;85417.59;;;21.52;17.09
73974;BME280;62336;-26.094;27.994;2022-08-25T06:05:40;85420.87;;;22.18;16.61
73974;BME280;62336;-26.094;27.994;2022-08-25T06:08:05;85412.76;;;22.47;16.63
73974;BME280;62336;-26.094;27.994;2022-08-25T06:10:31;85410.84;;;22.11;16.32
73974;BME280;62336;-26.094;27.994;2022-08-25T06:12:57;85407.23;;;22.41;16.09
73974;BME280;62336;-26.094;27.994;2022-08-25T06:15:23;85408.98;;;22.82;15.58
73974;BME280;62336;-26.094;27.994;2022-08-25T06:17:48;85407.67;;;23.33;15.28
73974;BME280;62336;-26.094;27.994;2022-08-25T06:20:15;85407.76;;;23.16;15.70
73974;BME280;62336;-26.094;27.994;2022-08-25T06:22:38;85408.99;;;24.10;15.56
73974;BME280;62336;-26.094;27.994;2022-08-25T06:25:05;85411.79;;;23.83;15.09
73974;BME280;62336;-26.094;27.994;2022-08-25T06:27:29;85411.36;;;24.24;15.51
73974;BME280;62336;-26.094;27.994;2022-08-25T06:29:55;85407.80;;;23.77;14.86
73974;BME280;62336;-26.094;27.994;2022-08-25T06:32:20;85409.65;;;23.92;14.83
73974;BME280;62336;-26.094;27.994;2022-08-25T06:34:46;85414.52;;;24.67;14.53
73974;BME280;62336;-26.094;27.994;2022-08-25T06:37:11;85416.37;;;24.61;14.49
73974;BME280;62336;-26.094;27.994;2022-08-25T06:39:36;85420.04;;;25.09;14.30
73974;BME280;62336;-26.094;27.994;2022-08-25T06:42:02;85417.81;;;24.80;14.28
73974;BME280;62336;-26.094;27.994;2022-08-25T06:44:27;85415.86;;;25.62;14.51
73974;BME280;62336;-26.094;27.994;2022-08-25T06:46:54;85414.30;;;25.67;13.89
73974;BME280;62336;-26.094;27.994;2022-08-25T06:49:19;85418.59;;;25.69;13.63
73974;BME280;62336;-26.094;27.994;2022-08-25T06:51:43;85414.91;;;25.95;13.28
73974;BME280;62336;-26.094;27.994;2022-08-25T06:54:10;85414.05;;;25.89;13.72
73974;BME280;62336;-26.094;27.994;2022-08-25T06:56:35;85415.14;;;25.75;13.42
73974;BME280;62336;-26.094;27.994;2022-08-25T06:59:01;85413.51;;;26.42;13.52
73974;BME280;62336;-26.094;27.994;2022-08-25T07:01:25;85411.51;;;26.36;13.22
73974;BME280;62336;-26.094;27.994;2022-08-25T07:03:51;85409.88;;;26.52;13.03
73974;BME280;62336;-26.094;27.994;2022-08-25T07:06:17;85404.17;;;26.68;13.07
73974;BME280;62336;-26.094;27.994;2022-08-25T07:08:42;85402.19;;;27.48;12.71
73974;BME280;62336;-26.094;27.994;2022-08-25T07:11:09;85401.43;;;27.09;12.78
73974;BME280;62336;-26.094;27.994;2022-08-25T07:13:33;85405.44;;;27.01;12.66
73974;BME280;62336;-26.094;27.994;2022-08-25T07:15:58;85406.27;;;27.17;12.67
73974;BME280;62336;-26.094;27.994;2022-08-25T07:18:24;85410.84;;;27.36;12.63
73974;BME280;62336;-26.094;27.994;2022-08-25T07:20:48;85407.47;;;27.25;12.44
73974;BME280;62336;-26.094;27.994;2022-08-25T07:23:13;85407.64;;;27.17;12.27
73974;BME280;62336;-26.094;27.994;2022-08-25T07:25:39;85407.85;;;27.69;12.22
73974;BME280;62336;-26.094;27.994;2022-08-25T07:28:05;85406.75;;;27.17;12.68
73974;BME280;62336;-26.094;27.994;2022-08-25T07:30:30;85403.68;;;27.15;12.92
73974;BME280;62336;-26.094;27.994;2022-08-25T07:32:56;85397.10;;;27.70;12.32
73974;BME280;62336;-26.094;27.994;2022-08-25T07:35:21;85393.29;;;27.61;12.62
73974;BME280;62336;-26.094;27.994;2022-08-25T07:37:48;85389.85;;;27.69;12.31
73974;BME280;62336;-26.094;27.994;2022-08-25T07:40:15;85387.16;;;27.75;12.17
73974;BME280;62336;-26.094;27.994;2022-08-25T07:42:39;85386.57;;;27.61;12.25
73974;BME280;62336;-26.094;27.994;2022-08-25T07:45:04;85385.68;;;28.04;11.81
73974;BME280;62336;-26.094;27.994;2022-08-25T07:47:29;85381.88;;;27.96;11.94
73974;BME280;62336;-26.094;27.994;2022-08-25T07:49:55;85381.68;;;28.25;11.98
73974;BME280;62336;-26.094;27.994;2022-08-25T07:52:20;85378.57;;;28.24;12.04
73974;BME280;62336;-26.094;27.994;2022-08-25T07:54:45;85373.80;;;28.41;11.73
73974;BME280;62336;-26.094;27.994;2022-08-25T07:57:11;85367.66;;;28.06;11.70
73974;BME280;62336;-26.094;27.994;2022-08-25T07:59:40;85368.01;;;27.74;11.93
73974;BME280;62336;-26.094;27.994;2022-08-25T08:02:01;85366.63;;;28.19;11.81
73974;BME280;62336;-26.094;27.994;2022-08-25T08:04:26;85360.58;;;28.81;11.48
73974;BME280;62336;-26.094;27.994;2022-08-25T08:06:52;85360.44;;;28.66;11.19
73974;BME280;62336;-26.094;27.994;2022-08-25T08:09:17;85355.10;;;28.92;10.95
73974;BME280;62336;-26.094;27.994;2022-08-25T08:11:42;85353.53;;;29.50;11.04
73974;BME280;62336;-26.094;27.994;2022-08-25T08:14:07;85352.71;;;29.17;10.87
73974;BME280;62336;-26.094;27.994;2022-08-25T08:16:33;85349.02;;;28.78;11.54
73974;BME280;62336;-26.094;27.994;2022-08-25T08:18:59;85350.02;;;29.57;10.86
73974;BME280;62336;-26.094;27.994;2022-08-25T08:21:27;85344.84;;;30.17;10.66
73974;BME280;62336;-26.094;27.994;2022-08-25T08:23:51;85344.66;;;30.00;10.81
73974;BME280;62336;-26.094;27.994;2022-08-25T08:26:14;85340.72;;;29.96;10.22
73974;BME280;62336;-26.094;27.994;2022-08-25T08:28:40;85341.94;;;29.69;10.60
73974;BME280;62336;-26.094;27.994;2022-08-25T08:31:06;85334.98;;;29.82;10.44
73974;BME280;62336;-26.094;27.994;2022-08-25T08:33:33;85332.56;;;30.18;10.40
73974;BME280;62336;-26.094;27.994;2022-08-25T08:35:58;85328.84;;;30.39;10.34
73974;BME280;62336;-26.094;27.994;2022-08-25T08:38:22;85329.19;;;30.62;10.13
73974;BME280;62336;-26.094;27.994;2022-08-25T08:40:55;85327.16;;;30.63;9.72
73974;BME280;62336;-26.094;27.994;2022-08-25T08:43:16;85327.58;;;30.30;9.98
73974;BME280;62336;-26.094;27.994;2022-08-25T08:45:41;85330.15;;;30.51;9.85
73974;BME280;62336;-26.094;27.994;2022-08-25T08:48:18;85329.00;;;30.36;9.93
73974;BME280;62336;-26.094;27.994;2022-08-25T08:50:33;85320.81;;;30.70;9.61
73974;BME280;62336;-26.094;27.994;2022-08-25T08:52:59;85320.79;;;30.29;9.75
73974;BME280;62336;-26.094;27.994;2022-08-25T08:55:24;85314.95;;;30.35;9.85
73974;BME280;62336;-26.094;27.994;2022-08-25T08:57:48;85310.32;;;31.17;9.82
73974;BME280;62336;-26.094;27.994;2022-08-25T09:00:12;85308.89;;;30.95;10.16
73974;BME280;62336;-26.094;27.994;2022-08-25T09:02:47;85303.11;;;30.65;9.84
73974;BME280;62336;-26.094;27.994;2022-08-25T09:05:05;85299.38;;;30.46;10.08
73974;BME280;62336;-26.094;27.994;2022-08-25T09:07:30;85298.95;;;30.26;10.26
73974;BME280;62336;-26.094;27.994;2022-08-25T09:09:52;85295.66;;;30.19;9.90
73974;BME280;62336;-26.094;27.994;2022-08-25T09:12:31;85291.56;;;30.53;9.83
73974;BME280;62336;-26.094;27.994;2022-08-25T09:14:53;85283.93;;;31.39;9.43
73974;BME280;62336;-26.094;27.994;2022-08-25T09:17:16;85283.92;;;31.03;9.55
73974;BME280;62336;-26.094;27.994;2022-08-25T09:19:51;85281.49;;;30.21;9.67
73974;BME280;62336;-26.094;27.994;2022-08-25T09:22:07;85281.95;;;30.92;9.99
73974;BME280;62336;-26.094;27.994;2022-08-25T09:24:35;85272.12;;;31.61;9.54
73974;BME280;62336;-26.094;27.994;2022-08-25T09:26:59;85266.72;;;31.08;9.48
73974;BME280;62336;-26.094;27.994;2022-08-25T09:29:21;85264.88;;;31.38;9.30
73974;BME280;62336;-26.094;27.994;2022-08-25T09:31:43;85267.57;;;31.77;8.99
73974;BME280;62336;-26.094;27.994;2022-08-25T09:34:12;85258.53;;;31.34;9.12
73974;BME280;62336;-26.094;27.994;2022-08-25T09:36:34;85250.72;;;31.55;8.83
73974;BME280;62336;-26.094;27.994;2022-08-25T09:38:59;85246.78;;;31.63;9.01
73974;BME280;62336;-26.094;27.994;2022-08-25T09:41:42;85244.86;;;31.68;9.09
73974;BME280;62336;-26.094;27.994;2022-08-25T09:43:53;85243.27;;;31.60;8.79
73974;BME280;62336;-26.094;27.994;2022-08-25T09:46:22;85233.68;;;31.46;8.69
73974;BME280;62336;-26.094;27.994;2022-08-25T09:48:47;85223.95;;;31.73;8.63
73974;BME280;62336;-26.094;27.994;2022-08-25T09:51:15;85224.64;;;31.92;9.23
73974;BME280;62336;-26.094;27.994;2022-08-25T09:53:31;85213.81;;;32.08;8.40
73974;BME280;62336;-26.094;27.994;2022-08-25T09:56:00;85212.05;;;32.55;8.23
73974;BME280;62336;-26.094;27.994;2022-08-25T09:58:23;85208.43;;;32.25;8.34
73974;BME280;62336;-26.094;27.994;2022-08-25T10:01:03;85202.36;;;32.08;8.11
73974;BME280;62336;-26.094;27.994;2022-08-25T10:03:18;85195.41;;;32.46;8.21
73974;BME280;62336;-26.094;27.994;2022-08-25T10:05:57;85190.50;;;32.58;8.65
73974;BME280;62336;-26.094;27.994;2022-08-25T10:08:10;85183.82;;;32.39;8.30
73974;BME280;62336;-26.094;27.994;2022-08-25T10:10:32;85183.23;;;32.62;8.29
73974;BME280;62336;-26.094;27.994;2022-08-25T10:12:55;85180.66;;;32.54;8.29
73974;BME280;62336;-26.094;27.994;2022-08-25T10:15:25;85168.30;;;32.40;7.92
73974;BME280;62336;-26.094;27.994;2022-08-25T10:17:46;85166.86;;;32.59;8.39
73974;BME280;62336;-26.094;27.994;2022-08-25T10:20:17;85164.34;;;32.55;8.19
73974;BME280;62336;-26.094;27.994;2022-08-25T10:22:38;85157.66;;;33.41;8.03
73974;BME280;62336;-26.094;27.994;2022-08-25T10:25:04;85154.49;;;33.56;7.80
73974;BME280;62336;-26.094;27.994;2022-08-25T10:27:33;85150.11;;;33.66;7.48
73974;BME280;62336;-26.094;27.994;2022-08-25T10:30:05;85148.16;;;33.51;8.46
73974;BME280;62336;-26.094;27.994;2022-08-25T10:32:21;85139.17;;;32.75;7.84
73974;BME280;62336;-26.094;27.994;2022-08-25T10:34:48;85135.20;;;33.34;7.59
73974;BME280;62336;-26.094;27.994;2022-08-25T10:37:16;85133.67;;;33.42;7.18
73974;BME280;62336;-26.094;27.994;2022-08-25T10:39:39;85126.64;;;33.60;7.13
73974;BME280;62336;-26.094;27.994;2022-08-25T10:42:06;85120.60;;;34.02;7.56
73974;BME280;62336;-26.094;27.994;2022-08-25T10:44:33;85115.27;;;33.10;7.45
73974;BME280;62336;-26.094;27.994;2022-08-25T10:46:57;85107.36;;;34.13;6.90
73974;BME280;62336;-26.094;27.994;2022-08-25T10:49:19;85098.67;;;33.84;7.18
73974;BME280;62336;-26.094;27.994;2022-08-25T10:51:49;85097.54;;;33.84;7.70
73974;BME280;62336;-26.094;27.994;2022-08-25T10:54:17;85096.95;;;34.00;6.98
73974;BME280;62336;-26.094;27.994;2022-08-25T10:56:35;85089.87;;;34.19;6.48
73974;BME280;62336;-26.094;27.994;2022-08-25T11:01:33;85082.40;;;34.34;6.34
73974;BME280;62336;-26.094;27.994;2022-08-25T11:03:51;85071.35;;;34.54;6.26
73974;BME280;62336;-26.094;27.994;2022-08-25T11:06:17;85067.82;;;34.67;6.39
73974;BME280;62336;-26.094;27.994;2022-08-25T11:08:44;85057.10;;;34.30;6.36
73974;BME280;62336;-26.094;27.994;2022-08-25T11:11:09;85047.36;;;34.06;7.51
73974;BME280;62336;-26.094;27.994;2022-08-25T11:13:38;85044.70;;;34.60;7.14
73974;BME280;62336;-26.094;27.994;2022-08-25T11:16:01;85042.03;;;34.50;6.51
73974;BME280;62336;-26.094;27.994;2022-08-25T11:18:22;85033.99;;;34.30;7.04
73974;BME280;62336;-26.094;27.994;2022-08-25T11:20:54;85029.81;;;34.09;6.96
73974;BME280;62336;-26.094;27.994;2022-08-25T11:23:17;85026.32;;;34.99;6.37
73974;BME280;62336;-26.094;27.994;2022-08-25T11:25:41;85018.39;;;34.72;6.55
73974;BME280;62336;-26.094;27.994;2022-08-25T11:28:08;85013.37;;;34.90;6.40
73974;BME280;62336;-26.094;27.994;2022-08-25T11:30:28;85013.05;;;34.41;6.74
73974;BME280;62336;-26.094;27.994;2022-08-25T11:32:54;85007.57;;;34.98;6.09
73974;BME280;62336;-26.094;27.994;2022-08-25T11:35:31;85005.10;;;34.92;6.36
73974;BME280;62336;-26.094;27.994;2022-08-25T11:37:56;84998.52;;;35.52;5.58
73974;BME280;62336;-26.094;27.994;2022-08-25T11:40:18;84996.19;;;34.88;6.06
73974;BME280;62336;-26.094;27.994;2022-08-25T11:42:41;84992.45;;;35.11;6.20
73974;BME280;62336;-26.094;27.994;2022-08-25T11:45:07;84993.00;;;34.97;5.99
73974;BME280;62336;-26.094;27.994;2022-08-25T11:47:39;84994.64;;;34.18;6.15
73974;BME280;62336;-26.094;27.994;2022-08-25T11:49:53;84999.52;;;34.24;6.86
73974;BME280;62336;-26.094;27.994;2022-08-25T11:54:43;84986.25;;;33.98;6.09
73974;BME280;62336;-26.094;27.994;2022-08-25T11:57:09;84975.39;;;34.50;6.08
73974;BME280;62336;-26.094;27.994;2022-08-25T12:02:00;84964.28;;;34.53;5.95
73974;BME280;62336;-26.094;27.994;2022-08-25T12:04:34;84956.91;;;34.10;5.95
73974;BME280;62336;-26.094;27.994;2022-08-25T12:09:19;84951.03;;;34.35;5.62
73974;BME280;62336;-26.094;27.994;2022-08-25T12:11:46;84947.65;;;34.57;5.77
73974;BME280;62336;-26.094;27.994;2022-08-25T12:14:14;84942.85;;;34.53;5.61
73974;BME280;62336;-26.094;27.994;2022-08-25T12:16:40;84940.11;;;34.81;5.65
73974;BME280;62336;-26.094;27.994;2022-08-25T12:21:31;84935.61;;;35.31;5.93
73974;BME280;62336;-26.094;27.994;2022-08-25T12:26:31;84916.06;;;35.09;5.46
73974;BME280;62336;-26.094;27.994;2022-08-25T12:28:47;84908.10;;;35.52;5.30
73974;BME280;62336;-26.094;27.994;2022-08-25T12:31:10;84901.85;;;35.67;5.57
73974;BME280;62336;-26.094;27.994;2022-08-25T12:33:37;84895.80;;;35.55;5.53
73974;BME280;62336;-26.094;27.994;2022-08-25T12:35:56;84893.02;;;35.50;5.67
73974;BME280;62336;-26.094;27.994;2022-08-25T12:38:29;84894.18;;;35.44;5.89
73974;BME280;62336;-26.094;27.994;2022-08-25T12:40:53;84889.23;;;35.14;5.95
73974;BME280;62336;-26.094;27.994;2022-08-25T12:43:20;84886.09;;;34.27;5.86
73974;BME280;62336;-26.094;27.994;2022-08-25T12:45:39;84885.77;;;35.02;6.56
73974;BME280;62336;-26.094;27.994;2022-08-25T12:50:30;84890.51;;;35.50;5.77